Terminal Aerodrome Forecast
Issued by NWS

Home | Current Version | Previous Version | Text Only | Print | Product List | Glossary On
Versions: 1 2 3 4 5 6 7 8 9 10 11 12 13 14 15
773
FTUS42 TJSJ 210006 RRA
TAFJMZ
TAF
TJMZ 210006Z 2100/2124 18025G45KT 3SM +SHRA VCTS SCT015 OVC025CB
     FM210800 19020G30KT 6SM SHRA SCT015 BKN025
     FM211700 18015G25KT P6SM VCSH SCT020 BKN040
      AMD NOT SKED=

USA.gov is the U.S. government's official web portal to all federal, state and local government web resources and services.